Terminal Aerodrome Forecast
Issued by NWS

Home | Current Version | Previous Version | Text Only | Print | Product List | Glossary On
Versions: 1 2 3 4 5 6 7 8 9 10 11 12 13 14 15 16 17
000
FTUS42 KILM 282329
TAFCRE
TAF
KCRE 282329Z 2900/2924 02006KT P6SM -SHRA SCT015 SCT035 BKN090
      TEMPO 2901/2905 07010KT 5SM -SHRA SCT015 BKN030
     FM290500 09013KT 4SM SHRA BKN025 OVC040
     FM291400 15013G22KT P6SM VCSH BKN025 BKN120=

USA.gov is the U.S. government's official web portal to all federal, state and local government web resources and services.